createdAt,value
2024-04-30T00:01:39.866Z,5.37
2024-04-30T00:06:47.198Z,4.80
2024-04-30T00:11:51.986Z,4.87
2024-04-30T00:16:56.641Z,5.60
2024-04-30T00:22:03.993Z,4.47
2024-04-30T00:27:08.645Z,5.27
2024-04-30T00:32:13.397Z,4.93
2024-04-30T00:37:20.750Z,5.20
2024-04-30T00:42:25.487Z,4.83
2024-04-30T00:47:30.424Z,4.70
2024-04-30T00:52:38.043Z,5.30
2024-04-30T00:57:42.794Z,5.73
2024-04-30T01:02:48.031Z,5.33
2024-04-30T01:07:55.331Z,5.80
2024-04-30T01:13:01.828Z,5.80
2024-04-30T01:18:06.889Z,5.47
2024-04-30T01:23:14.257Z,5.03
2024-04-30T01:28:18.943Z,5.93
2024-04-30T01:33:23.716Z,5.63
2024-04-30T01:38:31.014Z,5.40
2024-04-30T01:43:35.747Z,5.50
2024-04-30T01:48:40.630Z,5.27
2024-04-30T01:53:49.020Z,5.57
2024-04-30T01:58:54.131Z,5.83
2024-04-30T02:03:58.920Z,5.47
2024-04-30T02:09:06.277Z,5.43
2024-04-30T02:14:10.999Z,5.30
2024-04-30T02:19:15.699Z,5.40
2024-04-30T02:24:23.018Z,4.73
2024-04-30T02:29:27.653Z,5.17
2024-04-30T02:34:32.335Z,4.70
2024-04-30T02:39:39.649Z,4.90
2024-04-30T02:44:44.674Z,4.87
2024-04-30T02:49:49.323Z,5.07
2024-04-30T02:54:56.761Z,4.53
2024-04-30T03:00:01.674Z,4.87
2024-04-30T03:05:06.669Z,5.07
2024-04-30T03:10:14.069Z,4.93
2024-04-30T03:15:19.331Z,5.17
2024-04-30T03:20:24.038Z,5.03
2024-04-30T03:25:31.531Z,5.20
2024-04-30T03:30:36.606Z,5.00
2024-04-30T03:35:41.225Z,5.40
2024-04-30T03:40:48.532Z,4.90
2024-04-30T03:45:53.347Z,4.53
2024-04-30T03:50:58.497Z,5.30
2024-04-30T03:56:06.143Z,5.33
2024-04-30T04:01:10.992Z,5.00
2024-04-30T04:06:17.583Z,5.53
2024-04-30T04:11:40.715Z,5.27
2024-04-30T04:16:45.405Z,4.90
2024-04-30T04:21:50.050Z,5.13
2024-04-30T04:26:57.334Z,5.67
2024-04-30T04:32:02.483Z,5.73
2024-04-30T04:37:07.415Z,5.30
2024-04-30T04:42:14.775Z,5.23
2024-04-30T04:47:19.563Z,5.30
2024-04-30T04:52:24.292Z,4.80
2024-04-30T04:57:31.715Z,5.30
2024-04-30T05:02:36.430Z,5.27
2024-04-30T05:07:41.203Z,5.40
2024-04-30T05:12:48.571Z,5.63
2024-04-30T05:17:53.313Z,5.90
2024-04-30T05:22:58.524Z,7.00
2024-04-30T05:28:06.634Z,5.80
2024-04-30T05:33:13.244Z,6.37
2024-04-30T05:38:18.030Z,5.30
2024-04-30T05:43:25.369Z,5.20
2024-04-30T05:48:30.053Z,4.03
2024-04-30T05:53:36.890Z,3.27
2024-04-30T05:58:44.160Z,3.63
2024-04-30T06:03:48.977Z,3.83
2024-04-30T06:08:53.673Z,3.53
2024-04-30T06:14:00.966Z,3.43
2024-04-30T06:19:06.086Z,3.30
2024-04-30T06:24:11.176Z,3.40
2024-04-30T06:29:19.462Z,3.40
2024-04-30T06:34:24.171Z,3.43
2024-04-30T06:39:28.927Z,3.27
2024-04-30T06:44:36.135Z,3.00
2024-04-30T06:49:41.369Z,2.83
2024-04-30T06:54:46.100Z,3.33
2024-04-30T06:59:53.406Z,3.30
2024-04-30T07:04:58.119Z,3.13
2024-04-30T07:10:02.931Z,3.77
2024-04-30T07:15:11.191Z,3.80
2024-04-30T07:20:15.952Z,3.63
2024-04-30T07:25:20.671Z,3.20
2024-04-30T07:30:28.047Z,3.23
2024-04-30T07:35:32.724Z,3.43
2024-04-30T07:40:37.472Z,3.33
2024-04-30T07:45:45.312Z,3.53
2024-04-30T07:50:49.989Z,3.10
2024-04-30T07:55:54.648Z,3.37
2024-04-30T08:01:03.172Z,3.40
2024-04-30T08:06:14.609Z,3.17
2024-04-30T08:11:24.942Z,3.20
2024-04-30T08:16:32.375Z,3.40
2024-04-30T08:21:37.172Z,3.37
2024-04-30T08:26:41.854Z,3.70
2024-04-30T08:31:49.200Z,3.53
2024-04-30T08:36:53.878Z,3.40
2024-04-30T08:41:59.632Z,3.53
2024-04-30T08:47:08.229Z,3.88
2024-04-30T08:52:13.321Z,2.65
2024-04-30T08:57:18.181Z,3.30
2024-04-30T09:02:26.150Z,3.83
2024-04-30T09:07:31.552Z,3.50
2024-04-30T09:12:36.276Z,3.33
2024-04-30T09:17:43.603Z,3.50
2024-04-30T09:22:51.987Z,3.85
2024-04-30T09:27:56.712Z,3.63
2024-04-30T09:33:10.291Z,4.13
2024-04-30T09:38:16.684Z,3.90
2024-04-30T09:43:24.062Z,4.00
2024-04-30T09:48:33.197Z,3.92
2024-04-30T09:53:40.091Z,3.70
2024-04-30T09:58:44.868Z,3.97
2024-04-30T10:03:52.456Z,3.42
2024-04-30T10:08:57.353Z,4.03
2024-04-30T10:14:02.136Z,4.00
2024-04-30T10:19:09.455Z,3.63
2024-04-30T10:24:21.124Z,3.70
2024-04-30T10:29:25.876Z,4.03
2024-04-30T10:34:33.278Z,3.53
2024-04-30T10:39:38.202Z,3.80
2024-04-30T10:44:45.678Z,3.83
2024-04-30T10:55:12.093Z,4.45
2024-04-30T11:00:17.066Z,3.97
2024-04-30T11:05:24.810Z,3.80
2024-04-30T11:10:34.308Z,3.85
2024-04-30T11:15:40.441Z,3.75
2024-04-30T11:20:47.720Z,3.72
2024-04-30T11:25:52.373Z,4.30
2024-04-30T11:30:57.104Z,4.10
2024-04-30T11:36:04.372Z,3.80
2024-04-30T11:41:09.032Z,3.70
2024-04-30T11:46:14.122Z,3.90
2024-04-30T11:51:21.453Z,3.90
2024-04-30T11:56:30.650Z,3.67
2024-04-30T12:01:35.377Z,3.45
2024-04-30T12:06:42.684Z,3.40
2024-04-30T12:11:47.467Z,3.45
2024-04-30T12:16:52.349Z,3.55
2024-04-30T12:21:59.681Z,3.67
2024-04-30T12:27:04.435Z,3.30
2024-04-30T12:32:11.677Z,3.78
2024-04-30T12:37:20.303Z,3.50
2024-04-30T12:42:26.496Z,3.50
2024-04-30T12:47:31.268Z,3.05
2024-04-30T12:52:39.281Z,3.35
2024-04-30T12:57:44.039Z,3.22
2024-04-30T13:02:48.809Z,3.30
2024-04-30T13:07:56.190Z,3.20
2024-04-30T13:13:00.859Z,2.90
2024-04-30T13:18:05.636Z,3.35
2024-04-30T13:23:12.996Z,3.60
2024-04-30T13:28:18.579Z,3.38
2024-04-30T13:33:24.268Z,3.47
2024-04-30T13:38:31.654Z,3.10
2024-04-30T13:43:39.566Z,3.00
2024-04-30T13:48:44.561Z,3.20
2024-04-30T13:53:51.927Z,3.03
2024-04-30T13:58:56.639Z,3.20
2024-04-30T14:04:01.391Z,3.25
2024-04-30T14:09:08.924Z,2.70
2024-04-30T14:14:13.671Z,3.00
2024-04-30T14:19:18.407Z,2.97
2024-04-30T14:24:25.702Z,3.13
2024-04-30T14:29:30.323Z,3.20
2024-04-30T14:34:35.192Z,2.88
2024-04-30T14:39:42.554Z,3.38
2024-04-30T14:44:49.224Z,2.88
2024-04-30T14:49:53.997Z,3.00
2024-04-30T14:55:01.310Z,2.65
2024-04-30T15:00:06.251Z,3.42
2024-04-30T15:05:12.771Z,3.25
2024-04-30T15:10:20.126Z,2.83
2024-04-30T15:15:24.815Z,2.53
2024-04-30T15:20:29.538Z,2.70
2024-04-30T15:25:36.850Z,3.13
2024-04-30T15:30:41.554Z,3.30
2024-04-30T15:35:46.200Z,3.28
2024-04-30T15:40:54.320Z,2.72
2024-04-30T15:46:00.559Z,2.80
2024-04-30T15:51:07.135Z,2.72
2024-04-30T15:56:20.762Z,2.90
2024-04-30T16:01:25.479Z,2.90
2024-04-30T16:06:30.198Z,3.20
2024-04-30T16:11:37.535Z,2.90
2024-04-30T16:16:42.386Z,3.28
2024-04-30T16:21:51.719Z,3.28
2024-04-30T16:26:59.082Z,3.40
2024-04-30T16:32:03.757Z,3.42
2024-04-30T16:37:10.400Z,3.33
2024-04-30T16:42:17.716Z,3.30
2024-04-30T16:47:22.538Z,3.45
2024-04-30T16:52:27.233Z,3.40
2024-04-30T16:57:34.753Z,3.42
2024-04-30T17:02:39.463Z,3.30
2024-04-30T17:07:44.326Z,3.70
2024-04-30T17:12:52.881Z,3.95
2024-04-30T17:17:58.840Z,3.50
2024-04-30T17:23:03.535Z,3.60
2024-04-30T17:28:11.067Z,3.65
2024-04-30T17:33:15.780Z,3.90
2024-04-30T17:38:20.936Z,3.78
2024-04-30T17:43:28.232Z,4.65
2024-04-30T17:48:33.111Z,4.03
2024-04-30T17:53:37.959Z,4.43
2024-04-30T17:58:45.694Z,3.55
2024-04-30T18:03:57.212Z,3.63
2024-04-30T18:09:01.984Z,4.13
2024-04-30T18:14:09.321Z,4.50
2024-04-30T18:19:14.070Z,4.80
2024-04-30T18:24:18.812Z,4.07
2024-04-30T18:29:26.142Z,3.92
2024-04-30T18:34:30.885Z,4.60
2024-04-30T18:39:35.724Z,4.32
2024-04-30T18:44:43.148Z,4.13
2024-04-30T18:49:47.986Z,4.30
2024-04-30T18:54:52.761Z,4.20
2024-04-30T19:00:00.168Z,4.70
2024-04-30T19:05:06.431Z,4.67
2024-04-30T19:10:11.350Z,4.90
2024-04-30T19:15:18.695Z,4.40
2024-04-30T19:20:23.430Z,4.30
2024-04-30T19:25:28.112Z,4.77
2024-04-30T19:30:35.689Z,4.70
2024-04-30T19:35:40.448Z,4.50
2024-04-30T19:40:45.457Z,5.30
2024-04-30T19:45:52.880Z,5.10
2024-04-30T19:50:57.660Z,5.07
2024-04-30T19:56:02.371Z,5.37
2024-04-30T20:01:09.878Z,4.67
2024-04-30T20:06:14.583Z,4.50
2024-04-30T20:11:20.234Z,5.17
2024-04-30T20:16:27.831Z,5.33
2024-04-30T20:21:32.591Z,5.50
2024-04-30T20:26:37.321Z,6.47
2024-04-30T20:31:46.857Z,4.20
2024-04-30T20:36:52.262Z,4.73
2024-04-30T20:41:57.038Z,4.43
2024-04-30T20:47:04.369Z,4.63
2024-04-30T20:52:09.264Z,4.00
2024-04-30T20:57:13.991Z,3.90
2024-04-30T21:02:22.726Z,4.20
2024-04-30T21:07:27.472Z,4.33
2024-04-30T21:12:32.192Z,4.03
2024-04-30T21:17:39.652Z,4.63
2024-04-30T21:22:44.349Z,5.03
2024-04-30T21:27:49.062Z,4.57
2024-04-30T21:32:56.436Z,5.33
2024-04-30T21:38:33.995Z,4.50
2024-04-30T21:43:38.663Z,4.90
2024-04-30T21:48:46.002Z,4.40
2024-04-30T21:53:51.124Z,4.30
2024-04-30T21:58:55.773Z,4.03
2024-04-30T22:04:03.176Z,4.57
2024-04-30T22:09:07.910Z,4.57
2024-04-30T22:14:12.683Z,4.17
2024-04-30T22:19:20.066Z,4.27
2024-04-30T22:24:24.810Z,4.00
2024-04-30T22:29:29.573Z,4.47
2024-04-30T22:34:36.880Z,4.40
2024-04-30T22:39:41.605Z,3.87
2024-04-30T22:44:46.429Z,4.23
2024-04-30T22:49:53.847Z,3.63
2024-04-30T22:54:59.067Z,4.13
2024-04-30T23:00:03.980Z,4.13
2024-04-30T23:05:13.415Z,3.77
2024-04-30T23:10:18.201Z,4.10
2024-04-30T23:15:22.970Z,4.17
2024-04-30T23:20:30.691Z,3.90
2024-04-30T23:25:36.040Z,4.10
2024-04-30T23:30:40.763Z,4.07
2024-04-30T23:35:48.501Z,3.77
2024-04-30T23:40:53.241Z,4.17
2024-04-30T23:45:58.050Z,4.13
2024-04-30T23:51:05.458Z,4.00
2024-04-30T23:56:10.346Z,4.13
